Time;durP1;ratioP1;P1;durP2;ratioP2;P2;SDS_P1;SDS_P2;PMS_P1;PMS_P2;Temp;Humidity;BMP_temperature;BMP_pressure;BME280_temperature;BME280_humidity;BME280_pressure;Samples;Min_cycle;Max_cycle;Signal;HPM_P1;HPM_P2
2022/10/31 00:00:53;;;;;;;5.63;2.25;;;;;;;14.17;66.35;96070.97;4954760;28;20224;-83
2022/10/31 00:03:19;;;;;;;5.17;2.70;;;;;;;14.22;66.17;96066.06;4935146;29;20217;-83
2022/10/31 00:05:46;;;;;;;5.80;3.00;;;;;;;14.22;65.92;96071.28;4959846;28;20195;-84
2022/10/31 00:08:11;;;;;;;8.40;2.40;;;;;;;14.21;65.69;96064.44;4948292;28;20191;-85
2022/10/31 00:10:40;;;;;;;5.77;3.13;;;;;;;14.26;65.08;96067.41;4941825;28;20224;-83
2022/10/31 00:13:07;;;;;;;6.80;2.65;;;;;;;14.31;64.75;96067.75;4943517;29;20189;-85
2022/10/31 00:15:33;;;;;;;7.27;2.83;;;;;;;14.33;64.30;96065.81;4940665;29;20193;-83
2022/10/31 00:17:59;;;;;;;6.87;2.73;;;;;;;14.38;64.18;96055.69;4946157;29;20276;-84
2022/10/31 00:20:24;;;;;;;8.03;2.80;;;;;;;14.43;63.88;96056.03;4947372;28;20690;-84
2022/10/31 00:22:49;;;;;;;9.77;2.65;;;;;;;14.39;63.64;96057.31;4948213;29;20249;-84
2022/10/31 00:25:14;;;;;;;3.97;2.33;;;;;;;14.38;63.77;96055.69;4928537;29;20222;-83
2022/10/31 00:27:40;;;;;;;7.43;2.83;;;;;;;14.41;63.53;96058.00;4926717;29;20553;-84
2022/10/31 00:30:06;;;;;;;7.43;2.78;;;;;;;14.41;63.49;96060.59;4950255;29;20268;-84
2022/10/31 00:32:31;;;;;;;3.80;2.63;;;;;;;14.32;64.00;96056.34;4936305;29;20194;-84
2022/10/31 00:34:56;;;;;;;5.60;2.47;;;;;;;14.30;63.92;96052.22;4936888;29;20185;-84
2022/10/31 00:37:21;;;;;;;7.07;2.53;;;;;;;14.23;64.06;96054.66;4961612;28;20292;-82
2022/10/31 00:39:48;;;;;;;6.18;2.75;;;;;;;14.18;64.17;96056.94;4939066;29;20216;-84
2022/10/31 00:42:14;;;;;;;6.88;2.80;;;;;;;14.19;64.19;96061.16;4943237;29;20232;-84
2022/10/31 00:44:39;;;;;;;8.00;2.85;;;;;;;14.20;63.97;96064.59;4943769;28;20849;-84
2022/10/31 00:47:04;;;;;;;6.20;2.40;;;;;;;14.22;63.99;96060.03;4951503;29;20182;-84
2022/10/31 00:49:30;;;;;;;9.80;3.00;;;;;;;14.20;63.74;96061.97;4954340;28;20193;-84
2022/10/31 00:51:55;;;;;;;4.80;2.20;;;;;;;14.23;63.83;96059.91;4969214;28;20192;-85
2022/10/31 00:54:20;;;;;;;4.72;2.60;;;;;;;14.17;64.04;96055.28;4950321;28;20201;-85
2022/10/31 00:56:45;;;;;;;4.77;2.37;;;;;;;14.15;64.20;96054.63;4946406;29;20248;-85
2022/10/31 00:59:11;;;;;;;7.23;2.53;;;;;;;14.11;64.49;96056.72;4955149;28;20221;-84
2022/10/31 01:01:36;;;;;;;6.50;2.70;;;;;;;14.14;64.46;96053.00;4936496;29;20666;-81
2022/10/31 01:04:01;;;;;;;4.33;2.40;;;;;;;14.04;64.64;96057.50;4957283;29;20200;-84
2022/10/31 01:06:27;;;;;;;6.22;2.60;;;;;;;13.95;65.65;96054.03;4954043;29;20181;-82
2022/10/31 01:08:52;;;;;;;4.50;2.90;;;;;;;13.86;66.57;96050.56;4945196;28;20627;-84
2022/10/31 01:11:20;;;;;;;8.80;2.87;;;;;;;13.72;66.84;96052.94;4944499;28;20276;-83
2022/10/31 01:13:46;;;;;;;4.87;2.50;;;;;;;13.57;67.23;96050.91;4949390;28;20196;-83
2022/10/31 01:16:15;;;;;;;4.47;2.73;;;;;;;13.45;68.04;96054.75;4945903;29;20268;-83
2022/10/31 01:18:40;;;;;;;5.47;2.70;;;;;;;13.35;68.41;96055.81;4940691;29;20245;-83
2022/10/31 01:21:08;;;;;;;4.80;2.70;;;;;;;13.25;68.78;96053.28;4954277;28;20209;-82
2022/10/31 01:23:34;;;;;;;6.30;2.67;;;;;;;13.23;69.88;96052.63;4949684;29;20182;-83
2022/10/31 01:26:21;;;;;;;9.47;2.60;;;;;;;13.13;70.26;96052.66;4930863;29;20217;-84
2022/10/31 01:28:52;;;;;;;8.90;3.00;;;;;;;13.04;70.34;96059.59;4943927;29;20197;-83
2022/10/31 01:31:19;;;;;;;5.10;3.00;;;;;;;12.95;71.18;96057.09;4953670;29;20217;-84
2022/10/31 01:33:45;;;;;;;5.10;2.90;;;;;;;12.93;71.49;96057.25;4952120;29;20177;-85
2022/10/31 01:36:19;;;;;;;7.00;3.13;;;;;;;12.84;72.03;96054.72;4924619;29;20196;-84
2022/10/31 01:38:46;;;;;;;7.17;2.90;;;;;;;12.74;72.49;96054.78;4935301;29;20184;-84
2022/10/31 01:41:13;;;;;;;5.13;2.50;;;;;;;12.74;72.29;96047.78;4938397;29;20697;-83
2022/10/31 01:43:47;;;;;;;9.60;3.30;;;;;;;12.69;72.89;96051.78;4955721;29;20189;-83
2022/10/31 01:46:13;;;;;;;7.00;3.17;;;;;;;12.64;73.15;96057.47;4953467;28;20200;-84
2022/10/31 01:48:42;;;;;;;7.27;2.90;;;;;;;12.59;73.59;96051.03;4947703;29;20587;-85
2022/10/31 01:51:08;;;;;;;3.70;2.70;;;;;;;12.53;73.42;96043.81;4941565;28;20209;-84
2022/10/31 01:53:34;;;;;;;11.30;3.27;;;;;;;12.52;73.41;96043.00;4950124;29;20649;-84
2022/10/31 01:56:00;;;;;;;6.33;2.87;;;;;;;12.49;73.86;96048.50;4946257;29;20208;-83
2022/10/31 01:58:28;;;;;;;6.63;3.10;;;;;;;12.49;73.60;96045.91;4944337;28;20186;-83
2022/10/31 02:00:56;;;;;;;7.57;3.30;;;;;;;12.46;74.16;96054.03;4938703;29;20217;-84
2022/10/31 02:03:22;;;;;;;5.87;2.87;;;;;;;12.47;74.17;96050.44;4946143;29;20201;-84
2022/10/31 02:05:49;;;;;;;7.93;3.20;;;;;;;12.48;74.31;96047.69;4954423;28;20236;-83
2022/10/31 02:08:23;;;;;;;5.73;3.40;;;;;;;12.42;74.51;96053.47;4954591;29;20279;-84
2022/10/31 02:10:49;;;;;;;7.87;3.17;;;;;;;12.39;74.84;96052.97;4949556;28;20209;-83
2022/10/31 02:13:15;;;;;;;5.67;3.30;;;;;;;12.36;74.98;96053.22;4947587;29;20185;-83
2022/10/31 02:15:41;;;;;;;4.70;2.63;;;;;;;12.32;75.11;96057.09;4950008;28;20185;-83
2022/10/31 02:18:07;;;;;;;5.40;2.80;;;;;;;12.31;74.75;96051.09;4937807;29;20565;-83
2022/10/31 02:20:56;;;;;;;7.70;2.70;;;;;;;12.30;75.42;96046.84;4952271;28;20228;-83
2022/10/31 02:23:34;;;;;;;10.30;4.20;;;;;;;12.26;75.76;96048.09;4947300;29;20398;-84
2022/10/31 02:26:13;;;;;;;9.50;3.30;;;;;;;12.27;75.99;96046.28;4947387;29;20200;-83
2022/10/31 02:28:57;;;;;;;7.83;3.10;;;;;;;12.24;75.82;96044.00;4937637;29;20628;-84
2022/10/31 02:31:51;;;;;;;5.30;2.73;;;;;;;12.23;75.87;96043.19;4942412;28;20277;-84
2022/10/31 02:34:25;;;;;;;5.83;2.83;;;;;;;12.18;76.31;96045.38;4953436;29;20201;-84
2022/10/31 02:37:13;;;;;;;5.00;3.03;;;;;;;12.17;75.81;96036.75;4952633;28;20813;-83
2022/10/31 02:39:56;;;;;;;8.90;2.90;;;;;;;12.27;75.20;96035.88;4968716;28;20240;-83
2022/10/31 02:42:46;;;;;;;7.33;3.13;;;;;;;12.30;74.90;96033.00;4967726;28;20220;-84
2022/10/31 02:45:30;;;;;;;10.97;3.63;;;;;;;12.29;74.68;96039.19;4968440;28;20205;-84
2022/10/31 02:47:59;;;;;;;5.33;2.87;;;;;;;12.33;74.22;96043.13;4946009;29;20174;-83
2022/10/31 02:50:29;;;;;;;7.00;2.53;;;;;;;12.33;73.65;96038.72;4933788;29;20210;-83
2022/10/31 02:52:54;;;;;;;6.17;3.07;;;;;;;12.37;73.32;96034.06;4966186;28;20927;-83
2022/10/31 02:55:26;;;;;;;7.27;3.00;;;;;;;12.39;73.41;96032.94;4944970;29;20196;-84
2022/10/31 02:57:58;;;;;;;9.27;3.10;;;;;;;12.39;73.24;96032.94;4945634;29;20181;-83
2022/10/31 03:00:24;;;;;;;10.00;3.13;;;;;;;12.46;72.52;96038.38;4949697;28;20261;-83
2022/10/31 03:03:07;;;;;;;7.17;3.43;;;;;;;12.57;71.99;96039.97;4949224;29;20209;-84
2022/10/31 03:06:04;;;;;;;7.10;2.70;;;;;;;12.65;71.46;96038.25;4950199;29;20205;-83
2022/10/31 03:08:35;;;;;;;8.40;3.10;;;;;;;12.68;71.44;96034.53;4913896;29;20699;-84
2022/10/31 03:11:06;;;;;;;7.50;3.00;;;;;;;12.64;71.90;96033.19;4898297;29;20222;-82
2022/10/31 03:13:34;;;;;;;7.63;2.97;;;;;;;12.54;72.26;96030.63;4914099;29;20194;-83
2022/10/31 03:16:47;;;;;;;6.27;2.90;;;;;;;12.47;72.69;96033.03;4912801;29;20653;-83
2022/10/31 03:19:16;;;;;;;5.40;2.57;;;;;;;12.40;72.99;96033.75;4876710;29;20290;-84
2022/10/31 03:21:44;;;;;;;4.20;2.60;;;;;;;12.35;73.26;96036.78;4861116;29;20212;-83
2022/10/31 03:24:11;;;;;;;5.97;2.93;;;;;;;12.30;73.45;96027.78;4861212;29;20681;-84
2022/10/31 03:26:40;;;;;;;6.23;3.20;;;;;;;12.24;74.31;96030.97;4860699;29;20207;-83
2022/10/31 03:29:06;;;;;;;5.03;3.00;;;;;;;12.16;74.29;96021.28;4876798;29;20358;-83
2022/10/31 03:31:35;;;;;;;7.17;3.10;;;;;;;12.15;74.34;96030.06;4876745;29;20319;-84
2022/10/31 03:34:01;;;;;;;6.67;2.63;;;;;;;12.14;74.67;96024.03;4857390;29;20652;-83
2022/10/31 03:36:29;;;;;;;4.17;2.90;;;;;;;12.09;74.55;96028.03;4875815;29;20259;-83
2022/10/31 03:38:55;;;;;;;8.23;3.17;;;;;;;12.06;74.72;96028.31;4875926;29;20204;-83
2022/10/31 03:41:23;;;;;;;9.37;2.90;;;;;;;12.08;74.40;96029.81;4867523;29;20228;-83
2022/10/31 03:43:55;;;;;;;5.90;2.60;;;;;;;12.10;74.30;96027.91;4873891;29;20292;-83
2022/10/31 03:46:21;;;;;;;8.03;2.90;;;;;;;12.09;74.37;96021.03;4894674;29;20239;-83
2022/10/31 03:48:46;;;;;;;5.63;2.47;;;;;;;12.13;74.04;96026.78;4912882;29;20190;-83
2022/10/31 03:51:23;;;;;;;4.33;2.57;;;;;;;12.14;73.82;96026.63;4881104;29;20214;-83
2022/10/31 03:53:52;;;;;;;8.53;2.67;;;;;;;12.16;73.88;96027.31;4906143;29;20230;-83
2022/10/31 03:56:23;;;;;;;4.30;2.50;;;;;;;12.15;73.68;96025.66;4936541;29;20332;-83
2022/10/31 03:58:57;;;;;;;7.33;3.07;;;;;;;12.21;73.18;96018.25;4946027;29;20711;-82
2022/10/31 04:01:24;;;;;;;6.77;2.60;;;;;;;12.16;73.88;96018.69;4937208;29;20269;-84
2022/10/31 04:03:49;;;;;;;4.83;2.83;;;;;;;12.16;73.85;96016.06;4944333;29;20192;-82
2022/10/31 04:06:15;;;;;;;6.10;2.83;;;;;;;12.17;73.94;96018.53;4941152;29;20532;-83
2022/10/31 04:09:07;;;;;;;3.87;2.33;;;;;;;12.26;73.31;96019.44;4940975;29;20178;-83
2022/10/31 04:11:40;;;;;;;8.00;2.77;;;;;;;12.31;73.27;96008.59;4939366;28;20221;-84
2022/10/31 04:14:06;;;;;;;6.17;2.80;;;;;;;12.35;73.16;96009.94;4942848;28;20605;-84
2022/10/31 04:16:31;;;;;;;9.73;2.60;;;;;;;12.41;73.03;96009.34;4917206;29;20254;-83
2022/10/31 04:18:57;;;;;;;6.20;2.40;;;;;;;12.48;73.23;96015.63;4947229;29;20223;-83
2022/10/31 04:21:29;;;;;;;4.50;2.80;;;;;;;12.65;73.22;96017.41;4945972;29;20229;-84
2022/10/31 04:23:55;;;;;;;5.87;2.90;;;;;;;12.72;72.95;96004.56;4948270;29;20740;-83
2022/10/31 04:26:20;;;;;;;6.27;2.73;;;;;;;12.86;72.69;96014.50;4928525;29;20189;-83
2022/10/31 04:28:45;;;;;;;4.73;2.40;;;;;;;12.90;72.22;96004.59;4925784;29;20185;-84
2022/10/31 04:31:11;;;;;;;5.17;2.67;;;;;;;12.94;72.52;96005.91;4937359;29;20208;-84
2022/10/31 04:33:37;;;;;;;10.20;3.00;;;;;;;12.95;72.35;96004.94;4954956;29;20181;-82
2022/10/31 04:36:03;;;;;;;7.87;2.77;;;;;;;12.93;72.72;96004.28;4947619;29;20196;-82
2022/10/31 04:38:28;;;;;;;8.40;3.03;;;;;;;12.90;72.70;96004.59;4951602;29;20185;-82
2022/10/31 04:40:54;;;;;;;4.63;2.63;;;;;;;12.93;73.16;95999.88;4945745;29;20213;-82
2022/10/31 04:43:19;;;;;;;7.50;3.93;;;;;;;12.99;73.24;95998.47;4934354;29;20692;-83
2022/10/31 04:45:44;;;;;;;8.00;3.00;;;;;;;13.06;73.51;95999.50;4952573;29;20201;-83
2022/10/31 04:48:09;;;;;;;10.27;3.07;;;;;;;13.08;74.24;95989.75;4938455;29;20194;-83
2022/10/31 04:50:35;;;;;;;5.47;2.93;;;;;;;13.20;73.10;95995.56;4940295;29;20267;-83
2022/10/31 04:53:00;;;;;;;8.67;2.90;;;;;;;13.23;73.37;95992.63;4943328;29;20548;-82
2022/10/31 04:55:25;;;;;;;5.23;3.23;;;;;;;13.26;73.26;95990.56;4930201;29;20192;-82
2022/10/31 04:57:51;;;;;;;7.73;3.23;;;;;;;13.26;73.30;95985.34;4943740;29;20192;-83
2022/10/31 05:00:19;;;;;;;6.47;3.30;;;;;;;13.31;73.37;95987.47;4941554;29;20213;-81
2022/10/31 05:02:51;;;;;;;7.57;3.10;;;;;;;13.30;72.88;95983.22;4939506;29;20201;-83
2022/10/31 05:05:18;;;;;;;6.50;3.30;;;;;;;13.30;73.02;95986.66;4948672;29;20182;-84
2022/10/31 05:07:44;;;;;;;6.63;3.40;;;;;;;13.22;73.49;95989.22;4946635;28;20192;-84
2022/10/31 05:10:11;;;;;;;5.57;3.40;;;;;;;13.22;73.19;95986.59;4946359;29;20213;-83
2022/10/31 05:12:37;;;;;;;6.73;3.23;;;;;;;13.11;73.17;95984.22;4944920;29;20220;-82
2022/10/31 05:15:03;;;;;;;7.13;2.97;;;;;;;13.02;73.70;95979.91;4923886;29;20244;-82
2022/10/31 05:17:30;;;;;;;6.47;2.70;;;;;;;13.01;74.28;95975.69;4948469;29;20189;-83
2022/10/31 05:19:56;;;;;;;8.87;3.30;;;;;;;12.86;74.08;95972.78;4935526;29;20201;-82
2022/10/31 05:22:21;;;;;;;8.00;3.40;;;;;;;12.77;74.82;95976.28;4949746;29;20202;-82
2022/10/31 05:24:46;;;;;;;6.23;3.60;;;;;;;12.66;74.88;95972.16;4938186;29;20562;-84
2022/10/31 05:27:11;;;;;;;6.87;3.13;;;;;;;12.59;75.67;95973.69;4948900;28;20550;-84
2022/10/31 05:29:37;;;;;;;6.83;3.53;;;;;;;12.56;75.75;95981.81;4932159;29;20210;-83
2022/10/31 05:32:02;;;;;;;7.37;3.30;;;;;;;12.51;76.00;95984.03;4928345;29;20252;-83
2022/10/31 05:34:27;;;;;;;5.93;2.90;;;;;;;12.42;76.08;95979.72;4953984;29;20181;-84
2022/10/31 05:36:53;;;;;;;7.23;3.40;;;;;;;12.41;76.49;95973.69;4953562;29;20190;-82
2022/10/31 05:39:18;;;;;;;13.27;4.23;;;;;;;12.47;76.79;95967.91;4943643;28;20194;-84
2022/10/31 05:41:43;;;;;;;9.53;3.17;;;;;;;12.42;76.91;95974.53;4925324;29;20674;-83
2022/10/31 05:44:08;;;;;;;5.80;3.17;;;;;;;12.34;77.13;95971.84;4925188;29;20225;-85
2022/10/31 05:46:34;;;;;;;5.33;3.00;;;;;;;12.27;77.17;95971.59;4951826;29;20206;-83
2022/10/31 05:48:59;;;;;;;5.77;3.30;;;;;;;12.18;77.39;95972.47;4952397;28;20210;-84
2022/10/31 05:51:24;;;;;;;6.57;3.20;;;;;;;12.14;77.76;95968.53;4977990;28;20241;-85
2022/10/31 05:53:50;;;;;;;5.60;2.90;;;;;;;12.10;78.13;95967.19;4969645;28;20174;-85
2022/10/31 05:56:15;;;;;;;7.33;3.63;;;;;;;12.08;77.97;95969.94;4971527;28;20187;-84
2022/10/31 05:58:40;;;;;;;6.93;3.90;;;;;;;12.06;78.07;95969.28;4950186;28;20182;-84
2022/10/31 06:01:06;;;;;;;6.03;3.37;;;;;;;12.04;78.17;95971.22;4948714;28;20232;-84
2022/10/31 06:03:32;;;;;;;7.10;3.20;;;;;;;12.02;78.30;95964.53;4953618;29;20201;-82
2022/10/31 06:05:57;;;;;;;4.97;3.50;;;;;;;12.00;78.30;95961.22;4958272;29;20244;-83
2022/10/31 06:08:22;;;;;;;5.87;3.73;;;;;;;12.01;78.14;95973.28;4970989;29;20190;-81
2022/10/31 06:10:48;;;;;;;4.33;3.27;;;;;;;11.99;78.16;95957.00;4957375;29;20222;-81
2022/10/31 06:13:13;;;;;;;10.17;3.73;;;;;;;12.00;78.34;95963.81;4923070;29;20198;-82
2022/10/31 06:15:38;;;;;;;6.40;3.43;;;;;;;12.05;78.11;95961.63;4947299;28;20200;-83
2022/10/31 06:18:05;;;;;;;7.70;3.70;;;;;;;12.08;78.06;95962.13;4922930;29;20197;-83
2022/10/31 06:20:31;;;;;;;7.73;2.90;;;;;;;12.12;77.89;95962.69;4949991;28;20214;-83
2022/10/31 06:22:57;;;;;;;6.37;2.80;;;;;;;12.22;76.57;95962.63;4943961;29;20205;-83
2022/10/31 06:25:22;;;;;;;8.07;3.63;;;;;;;12.29;76.58;95958.47;4944833;29;20267;-83
2022/10/31 06:27:47;;;;;;;5.57;3.23;;;;;;;12.38;76.02;95947.16;4949242;28;20181;-81
2022/10/31 06:30:13;;;;;;;7.63;3.20;;;;;;;12.46;75.87;95949.84;4928011;29;20209;-82
2022/10/31 06:32:38;;;;;;;4.67;3.00;;;;;;;12.57;75.27;95952.19;4935722;29;20535;-83
2022/10/31 06:35:04;;;;;;;9.50;3.10;;;;;;;12.66;74.58;95945.28;4948792;29;20291;-82
2022/10/31 06:37:29;;;;;;;4.50;2.77;;;;;;;12.83;73.97;95952.25;4945325;29;20197;-84
2022/10/31 07:16:07;;;;;;;10.57;3.07;;;;;;;14.12;68.12;95959.13;4367699;23;20613;-79
2022/10/31 07:18:33;;;;;;;8.57;3.27;;;;;;;14.23;67.73;95965.03;4976353;28;20188;-80
2022/10/31 07:20:58;;;;;;;4.13;2.53;;;;;;;14.29;67.51;95969.59;4980697;28;21178;-80
2022/10/31 07:23:24;;;;;;;5.47;2.90;;;;;;;14.34;67.18;95960.31;4982369;28;20215;-81
2022/10/31 07:25:55;;;;;;;9.40;3.50;;;;;;;14.45;67.02;95973.09;4986256;28;20214;-84
2022/10/31 07:28:20;;;;;;;4.40;2.47;;;;;;;14.51;66.65;95970.84;4988443;28;20187;-83
2022/10/31 08:19:52;;;;;;;8.95;2.92;;;;;;;16.23;63.30;95974.78;4976923;28;20221;-79
2022/10/31 08:22:17;;;;;;;8.80;2.78;;;;;;;16.30;63.09;95965.22;4981366;28;20228;-80
2022/10/31 08:24:43;;;;;;;5.82;2.85;;;;;;;16.36;63.23;95964.56;4982538;28;20192;-82
2022/10/31 08:27:08;;;;;;;6.03;2.25;;;;;;;16.51;62.74;95965.41;4961442;28;20230;-81
2022/10/31 08:41:32;;;;;;;7.20;2.60;;;;;;;17.11;60.43;95951.53;4932505;29;20221;-84
2022/10/31 08:43:57;;;;;;;4.28;2.28;;;;;;;17.27;59.27;95948.78;4859728;29;20203;-86
2022/10/31 08:46:23;;;;;;;7.80;2.63;;;;;;;17.30;59.63;95947.59;4859564;29;20206;-86
2022/10/31 08:48:48;;;;;;;4.35;2.90;;;;;;;17.41;59.02;95955.03;4844601;29;20681;-86
2022/10/31 08:51:14;;;;;;;6.97;2.90;;;;;;;17.47;58.48;95940.34;4875846;29;20371;-86
2022/10/31 08:53:39;;;;;;;5.47;2.88;;;;;;;17.66;57.42;95952.13;4859703;29;20278;-85
2022/10/31 08:56:04;;;;;;;6.38;2.42;;;;;;;17.67;58.14;95948.50;4859755;29;20283;-85
2022/10/31 08:58:30;;;;;;;7.13;2.53;;;;;;;17.85;56.85;95943.75;4858821;29;21166;-85
2022/10/31 09:00:56;;;;;;;6.70;2.95;;;;;;;17.91;56.71;95944.81;4844654;29;20307;-85
2022/10/31 09:03:25;;;;;;;4.10;2.70;;;;;;;17.98;56.97;95945.72;4860368;29;20204;-85
2022/10/31 09:05:55;;;;;;;10.82;2.72;;;;;;;18.08;56.42;95944.41;4862837;29;20196;-85
2022/10/31 09:08:21;;;;;;;6.07;2.78;;;;;;;18.24;56.35;95942.56;4863023;29;20199;-86
2022/10/31 09:10:46;;;;;;;5.90;2.60;;;;;;;18.29;55.55;95942.84;4863129;29;20226;-85
2022/10/31 09:13:19;;;;;;;7.80;2.38;;;;;;;18.46;53.81;95938.16;4863928;29;20200;-86
2022/10/31 09:15:46;;;;;;;4.75;2.60;;;;;;;18.56;54.43;95936.88;4869721;29;20203;-86
2022/10/31 09:18:13;;;;;;;7.72;2.97;;;;;;;18.59;54.85;95940.91;4863125;29;20391;-86
2022/10/31 09:20:40;;;;;;;14.38;3.05;;;;;;;18.74;54.03;95941.72;4921666;29;20764;-86
2022/10/31 09:23:08;;;;;;;8.05;2.55;;;;;;;18.80;54.36;95940.94;4952644;29;20466;-86
2022/10/31 09:25:35;;;;;;;6.20;2.80;;;;;;;18.93;53.35;95933.16;4948831;29;20186;-86
2022/10/31 09:28:01;;;;;;;5.70;2.92;;;;;;;18.98;52.28;95940.47;4947014;29;20213;-86
2022/10/31 09:30:29;;;;;;;7.65;2.72;;;;;;;19.03;52.73;95946.00;4956570;29;20307;-86
2022/10/31 09:32:59;;;;;;;8.25;3.00;;;;;;;18.90;52.29;95941.44;4951401;29;20186;-86
2022/10/31 09:35:25;;;;;;;5.30;3.08;;;;;;;19.09;51.89;95944.44;4952343;29;20198;-86
2022/10/31 09:38:00;;;;;;;4.68;2.40;;;;;;;19.20;52.66;95943.91;4950660;29;20673;-86
2022/10/31 09:40:36;;;;;;;4.45;2.53;;;;;;;19.18;52.83;95948.56;4929862;29;20225;-86
2022/10/31 09:43:19;;;;;;;8.05;2.78;;;;;;;19.22;52.30;95939.25;4949817;29;20208;-85
2022/10/31 09:46:22;;;;;;;6.60;2.40;;;;;;;19.29;52.76;95945.38;4945296;29;20464;-86
2022/10/31 09:49:22;;;;;;;7.45;2.78;;;;;;;19.36;51.14;95938.34;4948517;28;20689;-86
2022/10/31 09:51:57;;;;;;;5.20;2.85;;;;;;;19.38;51.14;95944.25;4965421;28;20181;-86
2022/10/31 09:54:44;;;;;;;7.82;2.88;;;;;;;19.45;50.23;95939.03;4933260;29;20259;-85
2022/10/31 09:57:16;;;;;;;9.27;2.55;;;;;;;19.30;51.52;95933.03;4929112;29;20572;-85
2022/10/31 09:59:43;;;;;;;4.07;2.38;;;;;;;19.45;51.08;95929.31;4941528;29;20218;-85
2022/10/31 10:02:24;;;;;;;10.70;2.88;;;;;;;19.48;49.99;95928.91;4936591;29;20256;-85
2022/10/31 10:05:04;;;;;;;6.70;2.60;;;;;;;19.64;48.76;95921.72;4958196;29;20249;-85
2022/10/31 10:07:32;;;;;;;5.55;2.53;;;;;;;19.65;49.18;95928.63;4962682;28;21014;-86
2022/10/31 10:09:59;;;;;;;5.53;2.47;;;;;;;19.61;49.07;95930.00;4963381;29;20214;-85
2022/10/31 10:12:44;;;;;;;5.57;2.55;;;;;;;19.75;49.78;95924.63;4941691;29;20182;-85
2022/10/31 10:15:34;;;;;;;8.93;2.90;;;;;;;19.33;51.84;95915.03;4960428;29;20189;-86
2022/10/31 10:18:29;;;;;;;6.78;2.90;;;;;;;19.27;50.96;95912.38;4980341;28;20185;-86
2022/10/31 10:21:10;;;;;;;9.18;2.70;;;;;;;19.41;51.49;95917.50;4981584;28;20198;-86
2022/10/31 10:24:04;;;;;;;6.82;2.60;;;;;;;19.56;51.93;95916.59;4963851;29;20201;-85
2022/10/31 10:26:35;;;;;;;4.45;2.50;;;;;;;19.38;51.51;95912.63;4967706;29;20186;-85
2022/10/31 10:29:11;;;;;;;7.50;2.60;;;;;;;19.35;51.37;95920.94;4952255;29;20190;-85
2022/10/31 10:31:40;;;;;;;4.45;2.78;;;;;;;19.35;50.62;95915.66;4955958;29;20209;-86
2022/10/31 10:34:13;;;;;;;6.50;3.08;;;;;;;19.56;50.82;95913.94;4936023;29;20189;-85
2022/10/31 10:36:42;;;;;;;7.22;2.85;;;;;;;19.49;50.49;95912.09;4963299;29;20205;-86
2022/10/31 10:39:18;;;;;;;5.65;2.88;;;;;;;19.51;50.48;95909.25;4933004;29;20216;-86
2022/10/31 10:43:18;;;;;;;5.20;2.92;;;;;;;19.28;51.21;95912.16;4938255;29;20213;-85
2022/10/31 10:50:10;;;;;;;7.32;3.17;;;;;;;19.32;52.38;95908.13;4948856;29;20219;-84
2022/10/31 10:52:59;;;;;;;5.43;3.00;;;;;;;19.56;51.44;95895.50;4942578;29;20200;-86
2022/10/31 10:55:43;;;;;;;7.35;2.88;;;;;;;19.54;50.46;95893.09;4948752;29;20215;-84
2022/10/31 10:58:09;;;;;;;8.07;3.60;;;;;;;19.19;52.05;95887.00;4953979;29;20199;-83
2022/10/31 11:00:40;;;;;;;6.78;3.25;;;;;;;19.12;52.80;95875.59;5140348;23;20213;-83
2022/10/31 11:03:06;;;;;;;10.13;3.05;;;;;;;19.24;53.23;95874.06;4978870;28;20305;-82
2022/10/31 11:05:50;;;;;;;6.57;2.97;;;;;;;19.14;53.07;95863.88;4964714;28;20179;-83
2022/10/31 11:08:38;;;;;;;7.03;3.70;;;;;;;19.27;53.51;95865.78;4985340;28;20287;-84
2022/10/31 11:11:25;;;;;;;5.43;3.92;;;;;;;19.17;54.10;95860.03;4989369;28;20208;-83
2022/10/31 11:13:57;;;;;;;7.82;3.55;;;;;;;19.31;53.36;95864.38;4973589;28;20187;-82
2022/10/31 11:16:25;;;;;;;7.05;3.67;;;;;;;19.25;53.36;95862.50;4968265;28;20192;-84
2022/10/31 11:18:51;;;;;;;8.07;3.80;;;;;;;19.37;53.62;95865.44;4985563;28;20596;-82
2022/10/31 11:21:34;;;;;;;7.45;3.40;;;;;;;19.51;53.34;95860.03;4980438;28;20208;-84
2022/10/31 11:24:09;;;;;;;7.95;3.58;;;;;;;19.49;53.72;95861.22;4987058;28;20215;-84
2022/10/31 11:26:37;;;;;;;7.45;3.20;;;;;;;19.72;53.64;95859.16;4974150;28;20192;-84
2022/10/31 11:29:03;;;;;;;6.10;2.95;;;;;;;19.79;52.81;95864.44;4973214;28;20263;-84
2022/10/31 11:55:22;;;;;;;6.13;3.05;;;;;;;20.12;53.39;95829.44;4098358;23;20232;-85
2022/10/31 11:58:21;;;;;;;7.75;3.40;;;;;;;20.08;53.58;95829.88;4952306;28;20207;-85
2022/10/31 12:00:54;;;;;;;7.25;3.28;;;;;;;20.16;53.63;95825.41;4958785;28;20307;-84
2022/10/31 12:03:23;;;;;;;8.80;3.53;;;;;;;19.93;53.95;95816.03;4979665;28;20188;-86
2022/10/31 12:06:05;;;;;;;8.30;3.50;;;;;;;20.22;52.99;95809.59;4978976;28;20743;-85
2022/10/31 12:08:34;;;;;;;8.85;3.25;;;;;;;20.15;53.06;95821.16;4958372;28;20189;-85
2022/10/31 12:11:08;;;;;;;10.15;3.60;;;;;;;20.22;53.09;95814.06;4976155;28;20626;-84
2022/10/31 12:13:37;;;;;;;8.77;3.10;;;;;;;20.36;52.46;95802.50;4977046;28;20191;-85
2022/10/31 12:16:24;;;;;;;6.53;3.25;;;;;;;20.24;51.96;95804.13;4962000;28;20584;-85
2022/10/31 12:18:56;;;;;;;9.10;3.05;;;;;;;20.19;52.85;95801.28;4960264;28;20195;-85
2022/10/31 12:21:27;;;;;;;7.57;3.33;;;;;;;20.12;53.58;95803.09;4998502;23;20234;-85
2022/10/31 12:24:21;;;;;;;7.10;3.30;;;;;;;19.76;55.87;95809.50;4980500;28;20255;-84
2022/10/31 12:27:01;;;;;;;7.05;3.25;;;;;;;19.84;56.45;95801.41;4988339;28;20196;-80
2022/10/31 12:29:56;;;;;;;9.68;3.97;;;;;;;19.78;57.11;95796.94;4978991;28;20184;-85
2022/10/31 12:32:28;;;;;;;11.50;6.60;;;;;;;19.67;57.55;95802.78;4995645;28;20192;-86
2022/10/31 12:35:08;;;;;;;12.05;6.68;;;;;;;19.66;58.04;95793.25;5004264;28;20195;-86
2022/10/31 12:38:11;;;;;;;9.48;4.20;;;;;;;19.58;58.78;95790.78;5005720;28;20172;-86
2022/10/31 12:48:35;;;;;;;7.88;3.78;;;;;;;19.24;60.39;95756.38;4988518;23;20609;-87
2022/10/31 12:51:33;;;;;;;7.10;3.70;;;;;;;19.15;60.94;95759.38;4986114;28;20208;-85
2022/10/31 12:54:19;;;;;;;10.90;4.10;;;;;;;19.06;60.51;95744.78;4984388;28;20195;-85
2022/10/31 12:56:53;;;;;;;8.20;4.05;;;;;;;19.18;60.89;95736.13;4989295;28;20195;-84
2022/10/31 12:59:47;;;;;;;8.32;3.60;;;;;;;18.81;61.04;95728.63;4976159;28;20191;-86
2022/10/31 13:02:15;;;;;;;10.75;4.07;;;;;;;18.87;61.51;95727.88;4901953;29;20330;-86
2022/10/31 13:04:48;;;;;;;7.40;4.50;;;;;;;18.62;61.49;95719.59;4926207;29;20231;-87
2022/10/31 13:07:36;;;;;;;6.43;3.92;;;;;;;18.56;61.99;95723.03;4911921;29;20217;-87
2022/10/31 13:10:12;;;;;;;9.02;4.00;;;;;;;18.65;60.91;95721.91;4903362;29;20578;-85
2022/10/31 13:12:38;;;;;;;9.90;4.15;;;;;;;18.66;60.99;95731.41;4921258;29;20201;-85
2022/10/31 13:15:13;;;;;;;8.75;3.60;;;;;;;19.03;59.96;95724.13;4902946;29;20277;-85
2022/10/31 13:17:51;;;;;;;7.00;3.97;;;;;;;19.44;60.37;95727.53;4914762;29;21094;-85
2022/10/31 13:20:22;;;;;;;8.52;3.70;;;;;;;19.64;59.84;95732.06;4909142;29;20226;-85
2022/10/31 13:22:50;;;;;;;8.20;3.75;;;;;;;19.73;59.40;95733.50;4920455;29;20727;-86
2022/10/31 13:25:28;;;;;;;8.52;3.58;;;;;;;19.64;60.20;95727.59;4912460;29;20305;-84
2022/10/31 13:28:03;;;;;;;11.02;3.70;;;;;;;20.04;59.43;95719.72;4892269;29;20573;-85
2022/10/31 13:30:37;;;;;;;6.18;3.47;;;;;;;20.14;58.86;95719.31;4908302;29;20337;-86
2022/10/31 13:33:09;;;;;;;7.93;3.97;;;;;;;20.12;59.03;95719.53;4914706;29;20317;-86
2022/10/31 13:35:44;;;;;;;7.78;3.45;;;;;;;20.02;59.33;95722.56;4912733;29;20182;-86
2022/10/31 13:38:18;;;;;;;7.80;3.15;;;;;;;20.11;59.30;95712.66;4923897;28;20199;-85
2022/10/31 13:40:59;;;;;;;6.88;3.45;;;;;;;19.88;58.86;95712.22;4978443;28;20708;-86
2022/10/31 13:43:52;;;;;;;8.88;3.60;;;;;;;19.79;59.67;95709.78;4987774;28;20202;-86
2022/10/31 13:46:38;;;;;;;7.53;3.58;;;;;;;19.64;58.62;95705.72;4984372;28;20678;-85
2022/10/31 13:49:04;;;;;;;5.43;3.42;;;;;;;19.57;59.07;95710.16;4997841;28;20218;-85
2022/10/31 13:51:32;;;;;;;6.40;3.22;;;;;;;19.44;59.83;95706.44;4991042;28;20207;-85
2022/10/31 13:57:06;;;;;;;8.45;4.03;;;;;;;19.33;59.65;95677.22;4988902;28;20197;-85
2022/10/31 13:59:56;;;;;;;8.75;3.33;;;;;;;19.10;61.34;95672.31;4974916;28;20189;-84
2022/10/31 14:02:32;;;;;;;8.55;3.67;;;;;;;19.20;61.93;95678.03;4983287;28;20202;-85
2022/10/31 14:06:08;;;;;;;5.80;3.60;;;;;;;19.41;60.65;95685.75;4989015;28;20176;-84
2022/10/31 14:08:56;;;;;;;9.63;4.45;;;;;;;19.38;60.37;95693.25;4895414;29;20199;-84